Time;durP1;ratioP1;P1;durP2;ratioP2;P2;SDS_P1;SDS_P2;PMS_P1;PMS_P2;Temp;Humidity;BMP_temperature;BMP_pressure;BME280_temperature;BME280_humidity;BME280_pressure;Samples;Min_cycle;Max_cycle;Signal;HPM_P1;HPM_P2
2022/10/03 00:01:26;;;;;;;15.77;10.37;;;12.20;98.40;;;;;;5020108;28;20180;-88
2022/10/03 00:04:36;;;;;;;14.00;9.90;;;12.10;99.00;;;;;;5019585;28;20175;-89
2022/10/03 00:07:15;;;;;;;15.43;10.53;;;12.00;99.90;;;;;;5019440;28;20163;-88
2022/10/03 00:10:00;;;;;;;12.40;9.03;;;11.90;99.90;;;;;;5019157;28;20234;-87
2022/10/03 00:13:00;;;;;;;15.90;9.63;;;11.90;99.90;;;;;;5019503;28;20159;-88
2022/10/03 00:15:42;;;;;;;18.40;9.60;;;11.80;99.90;;;;;;5019554;28;20169;-88
2022/10/03 00:18:20;;;;;;;15.90;9.17;;;11.80;99.90;;;;;;5019006;28;20171;-86
2022/10/03 00:21:08;;;;;;;16.07;9.60;;;11.90;99.90;;;;;;5018151;28;20159;-87
2022/10/03 00:23:41;;;;;;;16.30;9.60;;;11.80;99.90;;;;;;5006228;28;20313;-87
2022/10/03 00:30:00;;;;;;;17.50;9.27;;;11.80;99.90;;;;;;4997241;28;20169;-90
2022/10/03 00:33:03;;;;;;;14.30;8.43;;;11.80;99.90;;;;;;4997651;28;20261;-85
2022/10/03 00:36:10;;;;;;;14.70;9.43;;;11.80;99.90;;;;;;5010833;28;20199;-88
2022/10/03 00:38:45;;;;;;;14.00;9.07;;;11.90;99.90;;;;;;4998458;28;20247;-89
2022/10/03 00:44:43;;;;;;;15.07;9.53;;;12.10;99.90;;;;;;5002708;28;20198;-87
2022/10/03 00:47:41;;;;;;;15.67;9.50;;;12.20;99.90;;;;;;5002738;28;20177;-87
2022/10/03 00:50:31;;;;;;;22.13;10.30;;;12.00;99.90;;;;;;4985316;28;20263;-87
2022/10/03 00:53:16;;;;;;;16.60;10.17;;;12.00;99.90;;;;;;4994757;28;20214;-89
2022/10/03 00:56:06;;;;;;;16.43;10.40;;;12.20;99.90;;;;;;4996061;28;20163;-89
2022/10/03 00:59:01;;;;;;;18.47;10.70;;;12.10;99.90;;;;;;4995014;28;20222;-89
2022/10/03 01:01:27;;;;;;;20.00;10.30;;;12.00;99.90;;;;;;4999268;28;20255;-88
2022/10/03 01:04:12;;;;;;;17.13;9.60;;;11.80;99.90;;;;;;5011148;28;20235;-88
2022/10/03 01:06:52;;;;;;;15.50;9.47;;;11.80;99.90;;;;;;4996187;28;20186;-86
2022/10/03 01:09:38;;;;;;;23.30;11.40;;;11.80;99.90;;;;;;4996022;28;20178;-85
2022/10/03 01:12:06;;;;;;;15.07;9.27;;;11.90;99.90;;;;;;4996451;28;20191;-89
2022/10/03 01:15:06;;;;;;;15.70;9.10;;;11.70;99.90;;;;;;4994340;28;20252;-87
2022/10/03 01:17:48;;;;;;;16.03;9.10;;;11.80;99.90;;;;;;4996338;28;20175;-87
2022/10/03 01:20:19;;;;;;;16.07;9.97;;;11.90;99.90;;;;;;4993594;28;20229;-87
2022/10/03 01:22:57;;;;;;;13.03;8.80;;;11.90;99.90;;;;;;4995623;28;20179;-88
2022/10/03 01:25:31;;;;;;;16.73;9.63;;;12.00;99.90;;;;;;4995687;28;20237;-89
2022/10/03 01:30:55;;;;;;;15.90;8.73;;;11.90;99.90;;;;;;5003815;28;20182;-88
2022/10/03 01:33:36;;;;;;;15.43;9.53;;;12.10;99.90;;;;;;5014773;28;20206;-88
2022/10/03 01:36:18;;;;;;;17.37;9.20;;;11.90;99.90;;;;;;5016796;28;20182;-88
2022/10/03 01:38:48;;;;;;;18.17;9.37;;;11.90;99.90;;;;;;5014311;28;20166;-87
2022/10/03 01:41:33;;;;;;;15.57;8.80;;;11.70;99.90;;;;;;5014696;28;20202;-86
2022/10/03 01:44:43;;;;;;;13.30;8.87;;;11.60;99.90;;;;;;5011334;28;20157;-87
2022/10/03 01:47:30;;;;;;;16.73;9.10;;;11.60;99.90;;;;;;4995074;28;20183;-90
2022/10/03 01:50:03;;;;;;;16.30;9.50;;;11.90;99.90;;;;;;4996385;28;20179;-88
2022/10/03 01:52:43;;;;;;;14.43;8.90;;;11.90;99.90;;;;;;5006814;28;20175;-89
2022/10/03 01:55:32;;;;;;;15.37;8.70;;;11.70;99.90;;;;;;5011843;28;20183;-87
2022/10/03 01:58:08;;;;;;;15.77;8.40;;;11.60;99.90;;;;;;4988181;28;20690;-88
2022/10/03 02:00:46;;;;;;;15.23;9.47;;;11.60;99.90;;;;;;5001257;28;20234;-89
2022/10/03 02:03:15;;;;;;;16.17;9.30;;;11.60;99.90;;;;;;5008188;28;20190;-89
2022/10/03 02:06:09;;;;;;;14.17;9.10;;;11.70;99.90;;;;;;4998308;28;20175;-90
2022/10/03 02:09:06;;;;;;;12.90;8.83;;;11.60;99.90;;;;;;4994585;28;20183;-87
2022/10/03 02:11:52;;;;;;;15.07;8.40;;;11.50;99.90;;;;;;4994367;28;20175;-87
2022/10/03 02:14:53;;;;;;;13.60;8.30;;;11.40;99.90;;;;;;4994080;28;20269;-86
2022/10/03 02:17:43;;;;;;;16.83;9.13;;;11.40;99.90;;;;;;4993885;28;20177;-87
2022/10/03 02:20:42;;;;;;;15.67;8.60;;;11.40;99.90;;;;;;4994023;28;20179;-87
2022/10/03 02:23:24;;;;;;;12.57;8.43;;;11.40;99.90;;;;;;4993642;28;20263;-90
2022/10/03 02:26:02;;;;;;;11.10;7.83;;;11.30;99.90;;;;;;4997829;28;20198;-87
2022/10/03 02:28:44;;;;;;;19.07;8.20;;;11.20;99.90;;;;;;4997723;28;20175;-89
2022/10/03 02:31:35;;;;;;;13.33;7.90;;;11.20;99.90;;;;;;4993675;28;20183;-89
2022/10/03 02:34:23;;;;;;;12.27;7.83;;;11.30;99.90;;;;;;5012772;28;20222;-89
2022/10/03 02:37:27;;;;;;;11.33;7.50;;;11.40;99.90;;;;;;5001498;28;20167;-88
2022/10/03 02:40:16;;;;;;;12.83;8.27;;;11.40;99.90;;;;;;5001016;28;20199;-86
2022/10/03 02:42:58;;;;;;;12.40;7.73;;;11.40;99.90;;;;;;5008218;28;20242;-88
2022/10/03 02:45:30;;;;;;;13.63;7.90;;;11.50;99.90;;;;;;5019525;28;20187;-88
2022/10/03 02:47:58;;;;;;;13.70;8.13;;;11.50;99.90;;;;;;5019348;28;20178;-86
2022/10/03 02:50:24;;;;;;;16.50;8.03;;;11.50;99.90;;;;;;5019665;28;20170;-88
2022/10/03 02:52:52;;;;;;;14.07;8.23;;;11.40;99.90;;;;;;5020198;28;20194;-88
2022/10/03 02:55:46;;;;;;;10.20;7.10;;;11.20;99.90;;;;;;5020673;28;20167;-87
2022/10/03 02:58:42;;;;;;;12.97;8.20;;;11.10;99.90;;;;;;5010340;28;20551;-88
2022/10/03 03:01:45;;;;;;;12.20;7.50;;;11.00;99.90;;;;;;5004945;28;20178;-88
2022/10/03 03:04:45;;;;;;;9.00;7.03;;;11.00;99.90;;;;;;5003181;28;20632;-87
2022/10/03 03:07:38;;;;;;;9.10;6.80;;;10.90;99.90;;;;;;5000294;28;20175;-88
2022/10/03 03:10:28;;;;;;;13.37;7.93;;;10.90;99.90;;;;;;4998208;28;20178;-88
2022/10/03 03:13:34;;;;;;;12.83;7.57;;;10.90;99.90;;;;;;4996778;28;20175;-88
2022/10/03 03:16:46;;;;;;;13.43;7.83;;;10.90;99.90;;;;;;4996159;28;20179;-88
2022/10/03 03:19:30;;;;;;;11.37;7.87;;;10.90;99.90;;;;;;4986302;28;20190;-88
2022/10/03 03:22:19;;;;;;;15.03;7.97;;;11.00;99.90;;;;;;4995612;28;20654;-89
2022/10/03 03:25:28;;;;;;;13.40;7.77;;;11.10;99.90;;;;;;4995710;28;20173;-88
2022/10/03 03:28:18;;;;;;;11.73;7.60;;;11.20;99.90;;;;;;4995789;28;20258;-89
2022/10/03 03:31:08;;;;;;;12.53;7.40;;;11.10;99.90;;;;;;4996154;28;20175;-87
2022/10/03 03:33:51;;;;;;;13.77;7.50;;;10.90;99.90;;;;;;4996424;28;20252;-89
2022/10/03 03:36:26;;;;;;;12.23;7.13;;;10.90;99.90;;;;;;4995981;28;20213;-87
2022/10/03 03:39:17;;;;;;;12.87;7.33;;;10.90;99.90;;;;;;4995763;28;20178;-87
2022/10/03 03:42:05;;;;;;;11.20;7.17;;;10.80;99.90;;;;;;4995373;28;20171;-88
2022/10/03 03:44:53;;;;;;;10.20;6.87;;;10.70;99.90;;;;;;4995139;28;20210;-89
2022/10/03 03:48:07;;;;;;;13.67;7.40;;;10.80;99.90;;;;;;4996280;28;20751;-88
2022/10/03 03:50:44;;;;;;;14.30;7.67;;;10.80;99.90;;;;;;5008412;28;20186;-86
2022/10/03 03:53:16;;;;;;;14.47;7.70;;;10.80;99.90;;;;;;5015422;28;20213;-87
2022/10/03 03:55:47;;;;;;;12.73;7.83;;;11.00;99.90;;;;;;5019070;28;20183;-86
2022/10/03 04:01:31;;;;;;;14.33;7.60;;;11.00;99.90;;;;;;5015425;28;20168;-89
2022/10/03 04:07:49;;;;;;;9.57;6.93;;;10.70;99.90;;;;;;4997935;28;20262;-88
2022/10/03 04:10:47;;;;;;;11.03;7.37;;;10.60;99.90;;;;;;4995932;28;20571;-87
2022/10/03 04:13:44;;;;;;;11.17;6.60;;;10.50;99.90;;;;;;4995405;28;20219;-88
2022/10/03 04:18:56;;;;;;;13.03;7.37;;;10.60;99.90;;;;;;4995472;28;20556;-89
2022/10/03 04:19:39;;;;;;;12.47;7.17;;;10.50;99.90;;;;;;4996014;28;20205;-89
2022/10/03 04:22:14;;;;;;;10.50;6.73;;;10.50;99.90;;;;;;4995492;28;20174;-89
2022/10/03 04:25:20;;;;;;;11.83;7.27;;;10.40;99.90;;;;;;4996317;28;20704;-89
2022/10/03 04:28:01;;;;;;;10.27;6.70;;;10.40;99.90;;;;;;5005459;28;20179;-90
2022/10/03 04:30:52;;;;;;;10.60;7.70;;;10.40;99.90;;;;;;5016691;28;20181;-90
2022/10/03 04:33:42;;;;;;;12.33;7.30;;;10.50;99.90;;;;;;5000297;28;20234;-88
2022/10/03 04:36:47;;;;;;;14.40;7.20;;;10.40;99.90;;;;;;4996570;28;20179;-88
2022/10/03 04:40:04;;;;;;;13.17;6.47;;;10.50;99.90;;;;;;4995961;28;20649;-90
2022/10/03 04:42:39;;;;;;;12.30;6.63;;;10.50;99.90;;;;;;4969106;28;20186;-89
2022/10/03 04:45:47;;;;;;;11.43;7.10;;;10.40;99.90;;;;;;5003530;28;20285;-89
2022/10/03 04:48:37;;;;;;;13.57;7.13;;;10.40;99.90;;;;;;5000029;28;20229;-88
2022/10/03 04:51:27;;;;;;;12.70;7.40;;;10.30;99.90;;;;;;5005126;28;20175;-88
2022/10/03 04:54:17;;;;;;;8.43;6.40;;;10.40;99.90;;;;;;5015723;28;20199;-89
2022/10/03 04:57:11;;;;;;;10.17;6.10;;;10.30;99.90;;;;;;5005230;28;20183;-87
2022/10/03 05:00:09;;;;;;;14.47;7.20;;;10.30;99.90;;;;;;4969699;28;20191;-87
2022/10/03 05:03:15;;;;;;;10.97;7.30;;;10.30;99.90;;;;;;4968285;28;20357;-86
2022/10/03 05:05:56;;;;;;;11.50;7.20;;;10.30;99.90;;;;;;4991921;28;20574;-88
2022/10/03 05:08:41;;;;;;;12.33;6.87;;;10.30;99.90;;;;;;4997869;28;20239;-89
2022/10/03 05:11:14;;;;;;;9.97;6.57;;;10.30;99.90;;;;;;4994645;28;20211;-88
2022/10/03 05:13:48;;;;;;;11.37;7.03;;;10.20;99.90;;;;;;4998617;28;20261;-87
2022/10/03 05:16:20;;;;;;;10.33;6.33;;;10.30;99.90;;;;;;5002278;28;20174;-89
2022/10/03 05:18:56;;;;;;;11.63;7.70;;;10.40;99.90;;;;;;4995407;28;20186;-88
2022/10/03 05:21:47;;;;;;;12.40;6.83;;;10.30;99.90;;;;;;4994576;28;20170;-88
2022/10/03 05:24:33;;;;;;;9.77;6.37;;;10.20;99.90;;;;;;4994826;28;20604;-89
2022/10/03 05:27:14;;;;;;;12.10;7.07;;;10.30;99.90;;;;;;4995025;28;20211;-88
2022/10/03 05:29:51;;;;;;;9.97;6.70;;;10.20;99.90;;;;;;4995058;28;20179;-89
2022/10/03 05:32:38;;;;;;;9.17;6.57;;;10.10;99.90;;;;;;4999147;28;20167;-90
2022/10/03 05:35:39;;;;;;;9.77;7.07;;;10.20;99.90;;;;;;4995639;28;20210;-90
2022/10/03 05:38:33;;;;;;;10.23;6.40;;;10.20;99.90;;;;;;4987445;28;20227;-89
2022/10/03 05:41:03;;;;;;;10.43;6.53;;;10.20;99.90;;;;;;4988687;28;20564;-92
2022/10/03 05:43:58;;;;;;;11.13;6.97;;;10.20;99.90;;;;;;4987145;28;20167;-92
2022/10/03 05:46:54;;;;;;;9.83;6.80;;;10.10;99.90;;;;;;4998448;28;20198;-89
2022/10/03 05:49:26;;;;;;;9.33;7.03;;;10.10;99.90;;;;;;5005685;28;20169;-89
2022/10/03 05:52:15;;;;;;;11.00;6.60;;;10.10;99.90;;;;;;5016389;28;20272;-87
2022/10/03 05:55:03;;;;;;;12.20;6.83;;;10.10;99.90;;;;;;5011984;28;20211;-88
2022/10/03 05:57:55;;;;;;;9.97;6.97;;;10.10;99.90;;;;;;4992232;28;20179;-88
2022/10/03 06:00:56;;;;;;;8.80;5.93;;;10.10;99.90;;;;;;4990925;28;20176;-92
2022/10/03 06:04:14;;;;;;;10.07;6.80;;;10.10;99.90;;;;;;4977049;28;20260;-87
2022/10/03 06:07:03;;;;;;;10.70;6.40;;;10.10;99.90;;;;;;4990721;28;20175;-86
2022/10/03 06:10:10;;;;;;;11.70;7.27;;;10.00;99.90;;;;;;4995557;28;20167;-87
2022/10/03 06:13:18;;;;;;;9.50;7.10;;;10.10;99.90;;;;;;4982541;28;20623;-91
2022/10/03 06:15:44;;;;;;;8.97;6.20;;;10.20;99.90;;;;;;4996403;28;20202;-90
2022/10/03 06:18:21;;;;;;;9.80;6.57;;;10.20;99.90;;;;;;4990833;28;20179;-94
2022/10/03 06:21:22;;;;;;;9.10;6.90;;;10.20;99.90;;;;;;4989684;28;20188;-87
2022/10/03 06:24:09;;;;;;;7.87;6.40;;;10.20;99.90;;;;;;4994413;28;20175;-88
2022/10/03 06:26:38;;;;;;;8.07;6.70;;;10.20;99.90;;;;;;5000433;28;20178;-88
2022/10/03 06:29:27;;;;;;;15.47;10.20;;;10.20;99.90;;;;;;5009801;28;20183;-91
2022/10/03 06:32:12;;;;;;;13.80;7.50;;;10.40;99.90;;;;;;5014534;28;20175;-90
2022/10/03 06:34:41;;;;;;;8.60;7.00;;;10.40;99.90;;;;;;5015000;28;20214;-88
2022/10/03 06:37:33;;;;;;;10.33;6.90;;;10.50;99.90;;;;;;5018193;28;20179;-87
2022/10/03 06:40:10;;;;;;;9.70;6.90;;;10.40;99.90;;;;;;5018766;28;20660;-90
2022/10/03 06:42:44;;;;;;;11.30;7.17;;;10.40;99.90;;;;;;5013758;28;20183;-89
2022/10/03 06:45:16;;;;;;;12.40;7.70;;;10.40;99.90;;;;;;5010306;28;20249;-90
2022/10/03 06:48:20;;;;;;;12.53;7.87;;;10.50;99.90;;;;;;5006294;28;20182;-92
2022/10/03 06:54:23;;;;;;;11.97;7.73;;;10.50;99.90;;;;;;5008719;28;20218;-92
2022/10/03 06:57:37;;;;;;;12.87;8.97;;;10.60;99.90;;;;;;5015334;28;20186;-90
2022/10/03 07:00:05;;;;;;;13.93;8.83;;;10.60;99.90;;;;;;5006535;28;20205;-89
2022/10/03 07:06:26;;;;;;;20.67;10.27;;;10.90;99.90;;;;;;5003743;28;20167;-89
2022/10/03 07:09:34;;;;;;;20.93;10.27;;;11.10;99.90;;;;;;5001699;28;20234;-92
2022/10/03 07:12:32;;;;;;;13.27;9.97;;;11.20;99.90;;;;;;5015352;28;20171;-87
2022/10/03 07:15:07;;;;;;;12.53;10.13;;;11.20;99.90;;;;;;5014081;28;20226;-92
2022/10/03 07:17:49;;;;;;;21.43;10.13;;;11.10;99.90;;;;;;5007821;28;20638;-90
2022/10/03 07:21:02;;;;;;;14.53;10.33;;;11.40;99.90;;;;;;5006294;28;20163;-92
2022/10/03 07:23:52;;;;;;;15.83;9.73;;;11.40;99.90;;;;;;5017197;28;20643;-88
2022/10/03 07:27:13;;;;;;;12.90;9.97;;;11.50;99.90;;;;;;5019476;28;20171;-90
2022/10/03 07:30:04;;;;;;;13.77;9.23;;;11.60;99.90;;;;;;5037680;28;20189;-87
2022/10/03 07:33:14;;;;;;;13.90;9.63;;;11.80;99.90;;;;;;5015815;28;20165;-88
2022/10/03 07:42:09;;;;;;;16.87;10.20;;;12.10;96.80;;;;;;5003647;28;20170;-91
2022/10/03 07:45:11;;;;;;;16.33;10.83;;;12.10;96.70;;;;;;5008287;28;20206;-94
2022/10/03 07:47:56;;;;;;;19.27;9.97;;;12.00;99.10;;;;;;5012513;28;20181;-93
2022/10/03 07:51:19;;;;;;;16.30;10.87;;;12.10;99.90;;;;;;5013118;28;20189;-92
2022/10/03 07:54:03;;;;;;;17.63;9.30;;;12.20;98.50;;;;;;5027527;28;20237;-93
2022/10/03 07:57:06;;;;;;;;;;;;;;;;;;;;;
2022/10/03 08:00:01;;;;;;;16.77;10.40;;;12.40;98.40;;;;;;5006935;28;20270;-90
2022/10/03 08:02:58;;;;;;;15.23;10.50;;;12.50;98.10;;;;;;5008767;28;20216;-90
2022/10/03 08:05:35;;;;;;;15.07;10.47;;;12.60;98.90;;;;;;5011910;28;20169;-92
2022/10/03 08:08:33;;;;;;;17.07;10.03;;;12.90;96.60;;;;;;5007695;28;20581;-93
2022/10/03 08:11:29;;;;;;;15.47;10.30;;;12.80;95.30;;;;;;5005912;28;20183;-93
2022/10/03 08:14:34;;;;;;;12.40;9.60;;;12.80;94.40;;;;;;5013290;28;20200;-90
2022/10/03 08:17:29;;;;;;;17.57;10.17;;;12.80;94.50;;;;;;5012893;28;20263;-92
2022/10/03 08:20:18;;;;;;;17.60;10.40;;;12.80;94.70;;;;;;5007938;28;20179;-94
2022/10/03 08:23:20;;;;;;;17.10;9.80;;;13.00;94.50;;;;;;5005525;28;20180;-90
2022/10/03 08:25:57;;;;;;;16.53;9.57;;;13.10;91.80;;;;;;5001875;28;20187;-91
2022/10/03 08:28:41;;;;;;;16.80;10.17;;;13.20;91.50;;;;;;4998419;28;20194;-91
2022/10/03 08:31:18;;;;;;;14.37;9.83;;;13.40;87.90;;;;;;4998584;28;20267;-92
2022/10/03 08:34:07;;;;;;;12.83;9.63;;;13.50;87.20;;;;;;4998660;28;20323;-92
2022/10/03 08:37:05;;;;;;;16.80;10.43;;;13.40;85.10;;;;;;5002327;28;20622;-94
2022/10/03 08:39:44;;;;;;;16.03;10.40;;;13.50;87.90;;;;;;5002991;28;20201;-91
2022/10/03 08:42:41;;;;;;;17.07;9.43;;;13.60;84.40;;;;;;5007610;28;20174;-90
2022/10/03 08:45:28;;;;;;;16.00;9.80;;;13.80;82.00;;;;;;5015024;28;20182;-91
2022/10/03 08:48:16;;;;;;;12.60;9.03;;;13.90;75.00;;;;;;5001517;28;20176;-91
2022/10/03 08:51:15;;;;;;;15.47;9.60;;;14.00;70.80;;;;;;5015512;28;20174;-90
2022/10/03 08:54:26;;;;;;;14.83;8.80;;;14.10;69.30;;;;;;5017876;28;20198;-90
2022/10/03 08:57:40;;;;;;;19.00;9.20;;;14.30;62.30;;;;;;5007275;28;20309;-93
2022/10/03 09:00:45;;;;;;;12.77;8.60;;;14.70;57.30;;;;;;5013541;28;20186;-92
2022/10/03 09:03:52;;;;;;;12.67;9.07;;;14.90;51.20;;;;;;4995531;28;20190;-92
2022/10/03 09:06:55;;;;;;;14.80;9.13;;;14.90;39.80;;;;;;5002256;28;20650;-90
2022/10/03 09:10:15;;;;;;;13.80;8.73;;;15.00;41.20;;;;;;5011962;28;20191;-91
2022/10/03 09:13:08;;;;;;;16.40;8.83;;;15.10;36.20;;;;;;5001928;28;20171;-91
2022/10/03 09:15:49;;;;;;;16.03;10.00;;;15.50;28.20;;;;;;4998592;28;20198;-90
2022/10/03 09:18:44;;;;;;;15.97;9.70;;;15.50;22.60;;;;;;4998621;28;20185;-92
2022/10/03 09:21:25;;;;;;;14.03;9.07;;;15.50;20.30;;;;;;5003267;28;20183;-91
2022/10/03 09:23:53;;;;;;;15.17;9.17;;;15.60;18.40;;;;;;5013681;28;20183;-89
2022/10/03 09:26:53;;;;;;;17.83;9.37;;;15.80;17.70;;;;;;5008269;28;20178;-91
2022/10/03 09:29:40;;;;;;;19.53;9.37;;;15.90;9.20;;;;;;5001112;28;20175;-90
2022/10/03 09:32:42;;;;;;;14.87;9.23;;;15.90;3.60;;;;;;5002075;28;20171;-90
2022/10/03 09:35:46;;;;;;;19.47;9.07;;;16.10;1.00;;;;;;5002913;28;20284;-91
2022/10/03 09:38:18;;;;;;;15.07;9.20;;;16.10;1.00;;;;;;4996691;28;20170;-90
2022/10/03 09:41:27;;;;;;;13.13;8.03;;;16.20;1.00;;;;;;5004100;28;20191;-87
2022/10/03 09:44:30;;;;;;;16.03;7.93;;;16.20;1.00;;;;;;5000149;28;20170;-88
2022/10/03 09:47:26;;;;;;;21.63;10.53;;;16.30;1.00;;;;;;5015369;28;20186;-90
2022/10/03 09:50:35;;;;;;;18.73;9.23;;;16.30;1.00;;;;;;5008002;28;20221;-89
2022/10/03 09:53:26;;;;;;;15.13;8.00;;;16.30;1.00;;;;;;5014962;28;20250;-87
2022/10/03 09:56:23;;;;;;;17.20;8.40;;;16.40;1.00;;;;;;5009534;28;20181;-88
2022/10/03 09:59:28;;;;;;;20.37;8.70;;;16.50;1.00;;;;;;5010246;28;20191;-89
2022/10/03 10:02:52;;;;;;;17.50;8.10;;;16.70;1.00;;;;;;5001953;28;20252;-89
2022/10/03 10:05:36;;;;;;;14.10;7.97;;;16.90;1.00;;;;;;5002907;28;20206;-90
2022/10/03 10:08:22;;;;;;;13.47;8.57;;;16.90;1.00;;;;;;5002866;28;20179;-88
2022/10/03 10:11:12;;;;;;;14.27;7.00;;;16.90;1.00;;;;;;5017163;28;20163;-91
2022/10/03 10:14:20;;;;;;;18.67;6.43;;;16.90;1.00;;;;;;5017243;28;20278;-91
2022/10/03 10:17:36;;;;;;;14.20;5.77;;;17.00;1.00;;;;;;5016108;28;20194;-89
2022/10/03 10:20:28;;;;;;;12.83;4.73;;;17.00;1.00;;;;;;5011444;28;20198;-89
2022/10/03 10:26:48;;;;;;;11.73;5.03;;;17.30;1.00;;;;;;4999817;28;20195;-89
2022/10/03 10:29:33;;;;;;;11.77;4.47;;;17.40;1.00;;;;;;4997757;28;20163;-90
2022/10/03 10:32:23;;;;;;;11.37;4.40;;;17.50;1.00;;;;;;4996169;28;20185;-93
2022/10/03 10:35:01;;;;;;;10.70;4.83;;;17.70;1.00;;;;;;4997355;28;20211;-90
2022/10/03 10:38:01;;;;;;;9.23;4.93;;;17.90;1.00;;;;;;4997553;28;20584;-92
2022/10/03 10:41:06;;;;;;;13.17;4.43;;;17.90;1.00;;;;;;5007927;28;20207;-90
2022/10/03 10:43:45;;;;;;;15.93;4.87;;;18.00;1.00;;;;;;5001216;28;20194;-92
2022/10/03 10:46:46;;;;;;;14.63;4.63;;;17.90;1.00;;;;;;4998683;28;20173;-92
2022/10/03 10:49:44;;;;;;;14.87;4.57;;;18.00;1.00;;;;;;5000133;28;20253;-92
2022/10/03 10:53:07;;;;;;;14.17;4.50;;;18.10;1.00;;;;;;5004723;28;20194;-90
2022/10/03 10:55:52;;;;;;;12.67;4.43;;;18.30;1.00;;;;;;5001790;28;20186;-92
2022/10/03 10:58:56;;;;;;;11.97;3.97;;;18.30;1.00;;;;;;5008275;28;20253;-92
2022/10/03 11:01:53;;;;;;;13.23;4.23;;;18.30;1.00;;;;;;5011496;28;20167;-88
2022/10/03 11:04:42;;;;;;;11.73;4.13;;;18.30;1.00;;;;;;5019758;28;20190;-87
2022/10/03 11:07:37;;;;;;;11.50;4.33;;;18.20;1.00;;;;;;5018053;28;20195;-86
2022/10/03 11:10:27;;;;;;;12.60;3.30;;;18.10;1.00;;;;;;5018763;28;20151;-89
2022/10/03 11:13:42;;;;;;;13.37;3.70;;;18.10;1.00;;;;;;5018407;28;20203;-91
2022/10/03 11:17:00;;;;;;;10.07;3.23;;;18.20;1.00;;;;;;5015441;28;20266;-87
2022/10/03 11:20:09;;;;;;;10.93;3.53;;;18.30;1.00;;;;;;5005024;28;20180;-86
2022/10/03 11:23:29;;;;;;;10.57;3.30;;;18.30;1.00;;;;;;5012346;28;20200;-91
2022/10/03 11:26:34;;;;;;;12.80;3.27;;;18.50;1.00;;;;;;5007433;28;20153;-89
2022/10/03 11:29:27;;;;;;;11.13;3.37;;;18.60;1.00;;;;;;5015739;28;20224;-86
2022/10/03 11:32:18;;;;;;;10.37;3.37;;;18.80;1.00;;;;;;5015245;28;20195;-88
2022/10/03 11:34:56;;;;;;;11.23;3.90;;;19.00;1.00;;;;;;5009700;28;20224;-89
2022/10/03 11:37:38;;;;;;;13.13;4.23;;;19.10;1.00;;;;;;5016038;28;20168;-86
2022/10/03 11:40:42;;;;;;;9.67;3.57;;;19.00;1.00;;;;;;5015160;28;20662;-87
2022/10/03 11:47:13;;;;;;;10.17;3.93;;;18.80;1.00;;;;;;5006526;28;20167;-90
2022/10/03 11:50:37;;;;;;;11.10;3.77;;;18.90;1.00;;;;;;5008682;28;20215;-92
2022/10/03 11:53:14;;;;;;;13.80;3.63;;;19.10;1.00;;;;;;5006499;28;20171;-91
2022/10/03 11:56:06;;;;;;;9.80;3.37;;;19.30;1.00;;;;;;5016285;28;20176;-88
2022/10/03 11:58:54;;;;;;;11.87;3.83;;;19.40;1.00;;;;;;5019571;28;20161;-89
2022/10/03 12:01:33;;;;;;;10.47;3.10;;;19.50;1.00;;;;;;5017976;28;20209;-88
2022/10/03 12:04:17;;;;;;;13.73;3.60;;;19.50;1.00;;;;;;5018308;28;20200;-88
2022/10/03 12:10:29;;;;;;;13.63;3.27;;;19.40;99.90;;;;;;5016465;28;20250;-91
2022/10/03 12:13:03;;;;;;;11.53;3.33;;;19.10;1.00;;;;;;5010624;28;20165;-90
2022/10/03 12:15:39;;;;;;;8.17;3.20;;;19.30;1.00;;;;;;4994062;28;20212;-90
2022/10/03 12:21:50;;;;;;;10.37;3.80;;;19.60;1.00;;;;;;5000224;28;20172;-89
2022/10/03 12:24:58;;;;;;;13.23;3.70;;;19.70;1.00;;;;;;5001081;28;20179;-89
2022/10/03 12:28:01;;;;;;;11.37;3.50;;;19.50;1.00;;;;;;5000108;28;20184;-91
2022/10/03 12:30:46;;;;;;;14.97;3.57;;;19.30;1.00;;;;;;4998736;28;20192;-89
2022/10/03 12:33:42;;;;;;;11.30;4.43;;;19.30;1.00;;;;;;5006613;28;20199;-89
2022/10/03 12:36:23;;;;;;;10.07;3.27;;;19.10;1.00;;;;;;5004798;28;20315;-90
2022/10/03 12:39:07;;;;;;;10.80;3.03;;;19.00;1.00;;;;;;5000781;28;20173;-88
2022/10/03 12:41:54;;;;;;;12.03;3.10;;;19.10;1.00;;;;;;4999153;28;20171;-90
2022/10/03 12:45:01;;;;;;;8.63;2.93;;;19.30;1.00;;;;;;5001429;28;20183;-89
2022/10/03 12:47:30;;;;;;;8.67;2.83;;;19.30;1.00;;;;;;5010335;28;20315;-89
2022/10/03 12:50:13;;;;;;;7.97;2.70;;;19.30;1.00;;;;;;5004032;28;20171;-88
2022/10/03 12:53:02;;;;;;;7.70;3.00;;;19.30;1.00;;;;;;5008409;28;20180;-87
2022/10/03 12:55:33;;;;;;;8.47;2.90;;;19.50;1.00;;;;;;5002347;28;20212;-89
2022/10/03 12:58:14;;;;;;;8.50;3.00;;;19.60;1.00;;;;;;4998457;28;20250;-90
2022/10/03 13:01:08;;;;;;;13.37;3.67;;;19.70;1.00;;;;;;4998246;28;20185;-88
2022/10/03 13:04:00;;;;;;;8.90;2.10;;;19.90;1.00;;;;;;4997845;28;20196;-89
2022/10/03 13:06:32;;;;;;;10.27;2.80;;;20.00;99.90;;;;;;4987650;28;20197;-89
2022/10/03 13:09:25;;;;;;;5.77;2.40;;;20.10;99.90;;;;;;4998540;28;20181;-87
2022/10/03 13:12:26;;;;;;;7.93;2.70;;;19.90;99.90;;;;;;4997710;28;20570;-90
2022/10/03 13:15:33;;;;;;;7.37;2.70;;;19.90;99.90;;;;;;4989232;28;20217;-88
2022/10/03 13:18:20;;;;;;;8.63;2.60;;;19.90;99.90;;;;;;4996484;28;20213;-89
2022/10/03 13:21:12;;;;;;;8.30;4.07;;;19.90;99.90;;;;;;4995496;28;20558;-91
2022/10/03 13:23:57;;;;;;;15.87;9.40;;;19.90;99.90;;;;;;4995192;28;20182;-90
2022/10/03 13:26:50;;;;;;;7.37;2.50;;;19.90;99.90;;;;;;4984375;28;20190;-91
2022/10/03 13:29:24;;;;;;;7.13;2.20;;;19.80;99.90;;;;;;4997193;28;20341;-90
2022/10/03 13:32:15;;;;;;;11.07;4.00;;;19.60;99.90;;;;;;4982458;28;20649;-90
2022/10/03 13:38:09;;;;;;;7.50;2.50;;;20.10;99.90;;;;;;5000390;28;20219;-88
2022/10/03 13:40:42;;;;;;;6.53;2.00;;;20.10;99.90;;;;;;4997407;28;20214;-88
2022/10/03 13:43:18;;;;;;;7.17;2.23;;;20.30;99.90;;;;;;4997350;28;20175;-90
2022/10/03 13:45:49;;;;;;;7.40;1.90;;;20.40;16.10;;;;;;4997078;28;20167;-91
2022/10/03 13:48:22;;;;;;;7.20;1.83;;;20.40;1.00;;;;;;4998947;28;20172;-89
2022/10/03 13:51:01;;;;;;;6.73;1.90;;;20.30;1.00;;;;;;5002661;28;20193;-86
2022/10/03 13:53:50;;;;;;;6.43;1.70;;;20.10;1.00;;;;;;4992404;28;20206;-89
2022/10/03 13:56:20;;;;;;;5.33;1.87;;;20.10;1.00;;;;;;4983653;28;20240;-89
2022/10/03 13:59:12;;;;;;;5.80;1.90;;;20.20;1.00;;;;;;4981930;28;20176;-91
2022/10/03 14:01:44;;;;;;;7.40;1.70;;;20.20;99.90;;;;;;4978300;28;20194;-90
2022/10/03 14:04:40;;;;;;;7.43;1.63;;;20.20;1.00;;;;;;4979032;28;20180;-90
2022/10/03 14:07:12;;;;;;;8.10;2.80;;;20.30;1.00;;;;;;4979382;28;20180;-90
2022/10/03 14:10:00;;;;;;;5.40;1.77;;;20.20;99.90;;;;;;4983649;28;20202;-90
2022/10/03 14:12:45;;;;;;;6.07;1.93;;;20.10;99.90;;;;;;4982409;28;20180;-91
2022/10/03 14:15:40;;;;;;;4.60;1.73;;;20.00;99.90;;;;;;4982768;28;20212;-91
2022/10/03 14:18:36;;;;;;;6.30;3.40;;;20.10;99.90;;;;;;4990745;28;20198;-88
2022/10/03 14:21:36;;;;;;;8.57;2.67;;;20.10;1.00;;;;;;4995139;28;20167;-88
2022/10/03 14:24:30;;;;;;;8.97;2.60;;;20.20;1.00;;;;;;4996400;28;20236;-90
2022/10/03 14:27:14;;;;;;;10.80;2.23;;;20.10;1.00;;;;;;5000673;28;20182;-90
2022/10/03 14:29:53;;;;;;;6.03;2.03;;;19.90;1.00;;;;;;5001698;28;20179;-90
2022/10/03 14:32:48;;;;;;;9.63;2.17;;;19.70;99.90;;;;;;4998729;28;20183;-90
2022/10/03 14:35:32;;;;;;;4.13;1.60;;;19.70;31.60;;;;;;4998817;28;20400;-89
2022/10/03 14:38:03;;;;;;;6.50;2.23;;;19.40;88.00;;;;;;5002515;28;20158;-90
2022/10/03 14:40:37;;;;;;;8.90;2.20;;;19.50;1.00;;;;;;5011724;28;20200;-90
2022/10/03 14:43:32;;;;;;;6.30;1.83;;;19.50;99.90;;;;;;5017067;28;20166;-88
2022/10/03 14:46:01;;;;;;;7.13;2.03;;;19.40;99.90;;;;;;5015563;28;20171;-87
2022/10/03 14:48:36;;;;;;;6.83;2.20;;;19.30;99.90;;;;;;5016041;28;20167;-86
2022/10/03 14:51:37;;;;;;;7.43;1.90;;;19.30;99.90;;;;;;5017163;28;20194;-88
2022/10/03 14:54:07;;;;;;;5.87;2.70;;;19.20;99.90;;;;;;5016739;28;20198;-91
2022/10/03 14:56:59;;;;;;;10.17;3.20;;;19.40;99.90;;;;;;5019260;28;20245;-87
2022/10/03 14:59:36;;;;;;;8.43;2.37;;;19.50;99.90;;;;;;5018785;28;20163;-85
2022/10/03 15:02:35;;;;;;;9.83;2.43;;;19.70;99.90;;;;;;5018137;28;20187;-88
2022/10/03 15:05:32;;;;;;;8.80;2.37;;;20.20;99.90;;;;;;5012224;28;20167;-89
2022/10/03 15:11:58;;;;;;;6.80;2.40;;;21.00;1.00;;;;;;5012761;28;20284;-87
2022/10/03 15:14:27;;;;;;;8.57;3.00;;;21.30;99.90;;;;;;5004940;28;20190;-88
2022/10/03 15:16:57;;;;;;;10.93;2.87;;;21.20;1.00;;;;;;5003332;28;20256;-92
2022/10/03 15:19:31;;;;;;;4.37;2.00;;;20.70;1.00;;;;;;5001020;28;20174;-89
2022/10/03 15:22:11;;;;;;;6.53;2.40;;;20.50;99.90;;;;;;4998271;28;20181;-88
2022/10/03 15:24:46;;;;;;;9.40;2.63;;;20.50;99.90;;;;;;5000297;28;20193;-91
2022/10/03 15:27:20;;;;;;;6.90;2.20;;;20.40;99.90;;;;;;5009656;28;20174;-90